Observation data for Northwest Lubbock on 05/27/2019      Previous  Date  Next       Current Mesonet Observations  Soil Data  Daily Summary Page  Observations in Plain Language
KLBW 270500Z 15011KT 22/17 A2988 RMK A01 T02160170  RH  079%=      5-min Rain = 0
KLBW 270505Z 16012G17KT 22/17 A2988 RMK A01 T02150170  RH  079%=      5-min Rain = 0
KLBW 270510Z 16012KT 22/17 A2988 RMK A01 T02160170  RH  079%=      5-min Rain = 0
KLBW 270515Z 16011G16KT 22/17 A2988 RMK A01 T02150170  RH  079%=      5-min Rain = 0
KLBW 270520Z 16011G16KT 21/17 A2988 RMK A01 T02140170  RH  080%=      5-min Rain = 0
KLBW 270525Z 16011KT 21/17 A2988 RMK A01 T02130170  RH  080%=      5-min Rain = 0
KLBW 270530Z 16011KT 21/17 A2988 RMK A01 T02130170  RH  081%=      5-min Rain = 0
KLBW 270535Z 17013G19KT 21/17 A2988 RMK A01 T02130170  RH  080%=      5-min Rain = 0
KLBW 270540Z 17011G17KT 21/17 A2988 RMK A01 T02130170  RH  080%=      5-min Rain = 0
KLBW 270545Z 17011KT 21/17 A2988 RMK A01 T02120169  RH  081%=      5-min Rain = 0
KLBW 270550Z 20010KT 21/17 A299 RMK A01 T02100170  RH  081%=      5-min Rain = 0
KLBW 270555Z 26012KT 21/17 A2992 RMK A01 T02100170  RH  082%=      5-min Rain = 0
KLBW 270600Z 23007G13KT 21/17 A2991 RMK A01 T02080171  RH  084%=      5-min Rain = 0
KLBW 270605Z 20007KT 21/17 A299 RMK A01 T02050171  RH  085%=      5-min Rain = 0
KLBW 270610Z 22007KT 20/17 A2991 RMK A01 T02030171  RH  086%=      5-min Rain = 0
KLBW 270615Z 22007KT 20/17 A2991 RMK A01 T02020172  RH  087%=      5-min Rain = 0
KLBW 270620Z 21005KT 20/17 A2991 RMK A01 T02010172  RH  088%=      5-min Rain = 0
KLBW 270625Z 20006KT 20/17 A2991 RMK A01 T01980172  RH  089%=      5-min Rain = 0
KLBW 270630Z 20007KT 20/17 A299 RMK A01 T01960173  RH  091%=      5-min Rain = 0
KLBW 270635Z 20006KT 20/17 A299 RMK A01 T01970174  RH  091%=      5-min Rain = 0
KLBW 270640Z 21005KT 20/17 A299 RMK A01 T01970174  RH  091%=      5-min Rain = 0
KLBW 270645Z 19005KT 20/17 A299 RMK A01 T01970174  RH  091%=      5-min Rain = 0
KLBW 270650Z 19006KT 20/17 A299 RMK A01 T01960174  RH  091%=      5-min Rain = 0
KLBW 270655Z 19007KT 20/17 A2989 RMK A01 T01980174  RH  091%=      5-min Rain = 0
KLBW 270700Z 19007KT 20/17 A2989 RMK A01 T02000174  RH  089%=      5-min Rain = 0
KLBW 270705Z 19007KT 20/17 A2989 RMK A01 T02000173  RH  089%=      5-min Rain = 0
KLBW 270710Z 19008KT 20/17 A2989 RMK A01 T02000173  RH  088%=      5-min Rain = 0
KLBW 270715Z 19009KT 20/17 A2989 RMK A01 T02010172  RH  088%=      5-min Rain = 0
KLBW 270720Z 19008KT 20/17 A2989 RMK A01 T02000172  RH  088%=      5-min Rain = 0
KLBW 270725Z 19009KT 20/17 A2988 RMK A01 T01990172  RH  088%=      5-min Rain = 0
KLBW 270730Z 19009KT 20/17 A2988 RMK A01 T02000172  RH  088%=      5-min Rain = 0
KLBW 270735Z 19008KT 20/17 A2988 RMK A01 T01990171  RH  088%=      5-min Rain = 0
KLBW 270740Z 19008KT 20/17 A2988 RMK A01 T01990171  RH  088%=      5-min Rain = 0
KLBW 270745Z 19008KT 20/17 A2988 RMK A01 T01980171  RH  089%=      5-min Rain = 0
KLBW 270750Z 18008G13KT 20/17 A2988 RMK A01 T02000171  RH  088%=      5-min Rain = 0
KLBW 270755Z 18007KT 20/17 A2988 RMK A01 T01980171  RH  089%=      5-min Rain = 0
KLBW 270800Z 18007KT 20/17 A2988 RMK A01 T01970171  RH  090%=      5-min Rain = 0
KLBW 270805Z 18007KT 20/17 A2988 RMK A01 T01960171  RH  090%=      5-min Rain = 0
KLBW 270810Z 18006KT 20/17 A2988 RMK A01 T01950171  RH  090%=      5-min Rain = 0
KLBW 270815Z 18007KT 19/17 A2988 RMK A01 T01930171  RH  091%=      5-min Rain = 0
KLBW 270820Z 17008KT 19/17 A2988 RMK A01 T01940171  RH  091%=      5-min Rain = 0
KLBW 270825Z 17008KT 19/17 A2987 RMK A01 T01940171  RH  091%=      5-min Rain = 0
KLBW 270830Z 17008KT 19/17 A2987 RMK A01 T01940171  RH  091%=      5-min Rain = 0
KLBW 270835Z 18008KT 19/17 A2987 RMK A01 T01940171  RH  091%=      5-min Rain = 0
KLBW 270840Z 18008KT 19/17 A2987 RMK A01 T01940171  RH  091%=      5-min Rain = 0
KLBW 270845Z 18008KT 19/17 A2987 RMK A01 T01930171  RH  091%=      5-min Rain = 0
KLBW 270850Z 18007KT 19/17 A2986 RMK A01 T01930170  RH  091%=      5-min Rain = 0
KLBW 270855Z 17007KT 19/17 A2986 RMK A01 T01930170  RH  091%=      5-min Rain = 0
KLBW 270900Z 17007KT 19/17 A2986 RMK A01 T01940170  RH  091%=      5-min Rain = 0
KLBW 270905Z 17008KT 20/17 A2986 RMK A01 T01950171  RH  090%=      5-min Rain = 0
KLBW 270910Z 17008KT 20/17 A2986 RMK A01 T01960171  RH  090%=      5-min Rain = 0
KLBW 270915Z 17007KT 19/17 A2986 RMK A01 T01940170  RH  090%=      5-min Rain = 0
KLBW 270920Z 17008KT 20/17 A2986 RMK A01 T01950171  RH  090%=      5-min Rain = 0
KLBW 270925Z 18007G12KT 20/17 A2986 RMK A01 T01950171  RH  090%=      5-min Rain = 0
KLBW 270930Z 18007G12KT 20/17 A2986 RMK A01 T01950171  RH  090%=      5-min Rain = 0
KLBW 270935Z 18009KT 20/17 A2986 RMK A01 T01960171  RH  090%=      5-min Rain = 0
KLBW 270940Z 18009KT 20/17 A2986 RMK A01 T01970172  RH  090%=      5-min Rain = 0
KLBW 270945Z 17010G15KT 20/17 A2986 RMK A01 T01970173  RH  090%=      5-min Rain = 0
KLBW 270950Z 17009KT 20/17 A2986 RMK A01 T01980173  RH  090%=      5-min Rain = 0
KLBW 270955Z 17010G17KT 20/17 A2986 RMK A01 T01990173  RH  090%=      5-min Rain = 0
KLBW 271000Z 17009G14KT 20/17 A2986 RMK A01 T01990173  RH  089%=      5-min Rain = 0
KLBW 271005Z 17009G14KT 20/17 A2986 RMK A01 T01980173  RH  090%=      5-min Rain = 0
KLBW 271010Z 17009G14KT 20/17 A2986 RMK A01 T01980173  RH  090%=      5-min Rain = 0
KLBW 271015Z 17008G13KT 20/17 A2986 RMK A01 T01960172  RH  091%=      5-min Rain = 0
KLBW 271020Z 17009KT 20/17 A2986 RMK A01 T01970173  RH  091%=      5-min Rain = 0
KLBW 271025Z 17008KT 20/17 A2986 RMK A01 T01960173  RH  091%=      5-min Rain = 0
KLBW 271030Z 17009KT 20/17 A2986 RMK A01 T01960174  RH  092%=      5-min Rain = 0
KLBW 271035Z 18009KT 20/17 A2986 RMK A01 T01950174  RH  092%=      5-min Rain = 0
KLBW 271040Z 18008KT 19/17 A2986 RMK A01 T01940174  RH  093%=      5-min Rain = 0
KLBW 271045Z 18010G17KT 19/18 A2986 RMK A01 T01930175  RH  094%=      5-min Rain = 0
KLBW 271050Z 18011G18KT 19/18 A2986 RMK A01 T01940175  RH  094%=      5-min Rain = 0
KLBW 271055Z 18010KT 19/18 A2986 RMK A01 T01930175  RH  094%=      5-min Rain = 0
KLBW 271100Z 18010G15KT 19/18 A2987 RMK A01 T01920175  RH  095%=      5-min Rain = 0
KLBW 271105Z 18010KT 19/18 A2987 RMK A01 T01910176  RH  096%=      5-min Rain = 0
KLBW 271110Z 18010G15KT 19/18 A2987 RMK A01 T01910176  RH  096%=      5-min Rain = 0
KLBW 271115Z 18011G16KT 19/18 A2987 RMK A01 T01920178  RH  096%=      5-min Rain = 0
KLBW 271120Z 18009G15KT 19/18 A2987 RMK A01 T01910177  RH  096%=      5-min Rain = 0
KLBW 271125Z 18010KT 19/18 A2987 RMK A01 T01910178  RH  097%=      5-min Rain = 0
KLBW 271130Z 18011G16KT 19/18 A2987 RMK A01 T01920179  RH  097%=      5-min Rain = 0
KLBW 271135Z 18011KT 19/18 A2987 RMK A01 T01920180  RH  097%=      5-min Rain = 0
KLBW 271140Z 19011G17KT 19/18 A2987 RMK A01 T01920181  RH  098%=      5-min Rain = 0
KLBW 271145Z 19011G17KT 19/18 A2987 RMK A01 T01930182  RH  098%=      5-min Rain = 0
KLBW 271150Z 18010G15KT 19/18 A2987 RMK A01 T01920182  RH  099%=      5-min Rain = 0
KLBW 271155Z 19011G17KT 19/18 A2988 RMK A01 T01930183  RH  099%=      5-min Rain = 0
KLBW 271200Z 19011KT 19/18 A2988 RMK A01 T01930184  RH  100%=      5-min Rain = 0
KLBW 271205Z 19010G16KT 19/18 A2988 RMK A01 T01930184  RH  100%=      5-min Rain = 0
KLBW 271210Z 19011G16KT 19/18 A2988 RMK A01 T01920184  RH  100%=      5-min Rain = 0
KLBW 271215Z 19010KT 19/18 A2988 RMK A01 T01920184  RH  100%=      5-min Rain = 0
KLBW 271220Z 19010KT 19/18 A2988 RMK A01 T01920184  RH  100%=      5-min Rain = 0
KLBW 271225Z 18011KT 19/19 A2988 RMK A01 T01930185  RH  100%=      5-min Rain = 0
KLBW 271230Z 19010KT 19/19 A2988 RMK A01 T01940185  RH  100%=      5-min Rain = 0
KLBW 271235Z 18011G16KT 20/19 A2988 RMK A01 T01950185  RH  099%=      5-min Rain = 0
KLBW 271240Z 19011KT 20/19 A2988 RMK A01 T01960185  RH  099%=      5-min Rain = 0
KLBW 271245Z 19011KT 20/19 A2989 RMK A01 T01970186  RH  099%=      5-min Rain = 0
KLBW 271250Z 19011KT 20/19 A2989 RMK A01 T01980186  RH  098%=      5-min Rain = 0
KLBW 271255Z 19010KT 20/19 A2989 RMK A01 T02000186  RH  097%=      5-min Rain = 0
KLBW 271300Z 19011G16KT 20/19 A2989 RMK A01 T02020187  RH  096%=      5-min Rain = 0
KLBW 271305Z 19012KT 20/19 A2989 RMK A01 T02030187  RH  095%=      5-min Rain = 0
KLBW 271310Z 20011G16KT 21/19 A2989 RMK A01 T02050188  RH  095%=      5-min Rain = 0
KLBW 271315Z 19012KT 21/19 A2989 RMK A01 T02060188  RH  094%=      5-min Rain = 0
KLBW 271320Z 20012KT 21/19 A2989 RMK A01 T02080188  RH  094%=      5-min Rain = 0
KLBW 271325Z 20011G16KT 21/19 A2989 RMK A01 T02090187  RH  092%=      5-min Rain = 0
KLBW 271330Z 20010G16KT 21/19 A2989 RMK A01 T02100187  RH  092%=      5-min Rain = 0
KLBW 271335Z 20012KT 21/19 A2989 RMK A01 T02110187  RH  091%=      5-min Rain = 0
KLBW 271340Z 20012KT 21/19 A2989 RMK A01 T02120187  RH  090%=      5-min Rain = 0
KLBW 271345Z 20013G18KT 21/19 A2989 RMK A01 T02130187  RH  090%=      5-min Rain = 0
KLBW 271350Z 20012G17KT 22/19 A2989 RMK A01 T02150187  RH  089%=      5-min Rain = 0
KLBW 271355Z 20011G16KT 22/19 A2989 RMK A01 T02170188  RH  088%=      5-min Rain = 0
KLBW 271400Z 20012G18KT 22/19 A2989 RMK A01 T02190187  RH  087%=      5-min Rain = 0
KLBW 271405Z 20013G18KT 22/19 A2989 RMK A01 T02190185  RH  085%=      5-min Rain = 0
KLBW 271410Z 20014G20KT 22/18 A2989 RMK A01 T02200182  RH  083%=      5-min Rain = 0
KLBW 271415Z 20013KT 22/18 A2989 RMK A01 T02210182  RH  083%=      5-min Rain = 0
KLBW 271420Z 20012G19KT 22/18 A2989 RMK A01 T02230180  RH  081%=      5-min Rain = 0
KLBW 271425Z 21012KT 23/18 A2989 RMK A01 T02250179  RH  080%=      5-min Rain = 0
KLBW 271430Z 21013KT 23/18 A2989 RMK A01 T02260178  RH  078%=      5-min Rain = 0
KLBW 271435Z 21012G17KT 23/18 A2989 RMK A01 T02270176  RH  077%=      5-min Rain = 0
KLBW 271440Z 21011G16KT 23/18 A2989 RMK A01 T02280177  RH  077%=      5-min Rain = 0
KLBW 271445Z 21011KT 23/18 A2989 RMK A01 T02320177  RH  075%=      5-min Rain = 0
KLBW 271450Z 21011KT 23/17 A2989 RMK A01 T02330174  RH  073%=      5-min Rain = 0
KLBW 271455Z 21012KT 23/17 A2989 RMK A01 T02340172  RH  072%=      5-min Rain = 0
KLBW 271500Z 21011KT 24/17 A2989 RMK A01 T02370174  RH  071%=      5-min Rain = 0
KLBW 271505Z 22009KT 24/18 A2989 RMK A01 T02410175  RH  070%=      5-min Rain = 0
KLBW 271510Z 20009G15KT 24/18 A2989 RMK A01 T02440175  RH  069%=      5-min Rain = 0
KLBW 271515Z 22010KT 24/17 A2989 RMK A01 T02430172  RH  068%=      5-min Rain = 0
KLBW 271520Z 22008G13KT 25/18 A2989 RMK A01 T02460176  RH  068%=      5-min Rain = 0
KLBW 271525Z 21007KT 25/18 A2989 RMK A01 T02490175  RH  067%=      5-min Rain = 0
KLBW 271530Z 21009KT 25/17 A2989 RMK A01 T02500174  RH  066%=      5-min Rain = 0
KLBW 271535Z 21008KT 25/18 A2989 RMK A01 T02520175  RH  066%=      5-min Rain = 0
KLBW 271540Z 21010KT 25/17 A2989 RMK A01 T02520171  RH  064%=      5-min Rain = 0
KLBW 271545Z 21010KT 25/17 A2989 RMK A01 T02520170  RH  064%=      5-min Rain = 0
KLBW 271550Z 21009KT 25/17 A2989 RMK A01 T02530171  RH  063%=      5-min Rain = 0
KLBW 271555Z 21010KT 26/17 A2989 RMK A01 T02550169  RH  062%=      5-min Rain = 0
KLBW 271600Z 22007KT 26/17 A2989 RMK A01 T02580171  RH  062%=      5-min Rain = 0
KLBW 271605Z 21010KT 26/17 A2989 RMK A01 T02590168  RH  060%=      5-min Rain = 0
KLBW 271610Z 21006KT 26/17 A2989 RMK A01 T02610170  RH  060%=      5-min Rain = 0
KLBW 271615Z 23008KT 27/16 A2989 RMK A01 T02660164  RH  056%=      5-min Rain = 0
KLBW 271620Z 24010KT 27/15 A2989 RMK A01 T02670154  RH  052%=      5-min Rain = 0
KLBW 271625Z 24008KT 27/15 A2989 RMK A01 T02680148  RH  050%=      5-min Rain = 0
KLBW 271630Z 23009KT 27/15 A2989 RMK A01 T02720149  RH  049%=      5-min Rain = 0
KLBW 271635Z 22009KT 27/15 A2989 RMK A01 T02740147  RH  048%=      5-min Rain = 0
KLBW 271640Z 23008G13KT 28/14 A2988 RMK A01 T02750142  RH  046%=      5-min Rain = 0
KLBW 271645Z 20008KT 28/14 A2988 RMK A01 T02750137  RH  044%=      5-min Rain = 0
KLBW 271650Z 22009KT 28/13 A2988 RMK A01 T02790131  RH  042%=      5-min Rain = 0
KLBW 271655Z 20008G13KT 28/13 A2988 RMK A01 T02790126  RH  040%=      5-min Rain = 0
KLBW 271700Z 21007KT 28/13 A2988 RMK A01 T02830128  RH  040%=      5-min Rain = 0
KLBW 271705Z 24008KT 29/12 A2988 RMK A01 T02860117  RH  037%=      5-min Rain = 0
KLBW 271710Z 23008KT 29/10 A2987 RMK A01 T02880101  RH  032%=      5-min Rain = 0
KLBW 271715Z 23010G17KT 29/09 A2987 RMK A01 T02900093  RH  030%=      5-min Rain = 0
KLBW 271720Z 23009KT 29/09 A2987 RMK A01 T02910088  RH  029%=      5-min Rain = 0
KLBW 271725Z 24009G15KT 29/08 A2987 RMK A01 T02930081  RH  027%=      5-min Rain = 0
KLBW 271730Z 24010G16KT 29/07 A2987 RMK A01 T02940071  RH  025%=      5-min Rain = 0
KLBW 271735Z 22010KT 30/08 A2987 RMK A01 T02950075  RH  026%=      5-min Rain = 0
KLBW 271740Z 22011G16KT 30/07 A2986 RMK A01 T02950066  RH  024%=      5-min Rain = 0
KLBW 271745Z 23011KT 30/07 A2986 RMK A01 T02960068  RH  024%=      5-min Rain = 0
KLBW 271750Z 24009KT 30/07 A2986 RMK A01 T02960070  RH  025%=      5-min Rain = 0
KLBW 271755Z 23009G18KT 30/08 A2986 RMK A01 T02990076  RH  026%=      5-min Rain = 0
KLBW 271800Z 23009KT 30/08 A2986 RMK A01 T03000075  RH  025%=      5-min Rain = 0
KLBW 271805Z 21008G14KT 30/08 A2986 RMK A01 T03010075  RH  025%=      5-min Rain = 0
KLBW 271810Z 19012KT 30/07 A2986 RMK A01 T03020072  RH  024%=      5-min Rain = 0
KLBW 271815Z 21008G14KT 30/08 A2986 RMK A01 T03020077  RH  025%=      5-min Rain = 0
KLBW 271820Z 22009G14KT 30/07 A2986 RMK A01 T03040071  RH  024%=      5-min Rain = 0
KLBW 271825Z 20011G17KT 30/07 A2985 RMK A01 T03030066  RH  023%=      5-min Rain = 0
KLBW 271830Z 20010G15KT 30/07 A2985 RMK A01 T03020065  RH  023%=      5-min Rain = 0
KLBW 271835Z 21010G16KT 31/08 A2985 RMK A01 T03050080  RH  025%=      5-min Rain = 0
KLBW 271840Z 20010G18KT 31/07 A2985 RMK A01 T03050070  RH  024%=      5-min Rain = 0
KLBW 271845Z 19010G17KT 31/07 A2984 RMK A01 T03060074  RH  024%=      5-min Rain = 0
KLBW 271850Z 18012KT 31/07 A2984 RMK A01 T03060073  RH  024%=      5-min Rain = 0
KLBW 271855Z 18009G14KT 31/09 A2984 RMK A01 T03080086  RH  026%=      5-min Rain = 0
KLBW 271900Z 18009G18KT 31/08 A2984 RMK A01 T03090080  RH  025%=      5-min Rain = 0
KLBW 271905Z 21010G15KT 31/08 A2983 RMK A01 T03080077  RH  024%=      5-min Rain = 0
KLBW 271910Z 19011G16KT 31/07 A2983 RMK A01 T03070070  RH  023%=      5-min Rain = 0
KLBW 271915Z 20010KT 31/07 A2983 RMK A01 T03100074  RH  024%=      5-min Rain = 0
KLBW 271920Z 19011G19KT 31/07 A2982 RMK A01 T03100071  RH  023%=      5-min Rain = 0
KLBW 271925Z 19010G17KT 31/08 A2982 RMK A01 T03130076  RH  024%=      5-min Rain = 0
KLBW 271930Z 19010G17KT 31/08 A2982 RMK A01 T03130077  RH  024%=      5-min Rain = 0
KLBW 271935Z 18012G17KT 31/07 A2982 RMK A01 T03120067  RH  022%=      5-min Rain = 0
KLBW 271940Z 19011G17KT 31/07 A2982 RMK A01 T03140067  RH  022%=      5-min Rain = 0
KLBW 271945Z 20011G18KT 31/06 A2981 RMK A01 T03140064  RH  021%=      5-min Rain = 0
KLBW 271950Z 21012KT 31/06 A2981 RMK A01 T03130056  RH  020%=      5-min Rain = 0
KLBW 271955Z 19011KT 31/06 A2981 RMK A01 T03140064  RH  021%=      5-min Rain = 0
KLBW 272000Z 19009KT 32/07 A2981 RMK A01 T03160066  RH  022%=      5-min Rain = 0
KLBW 272005Z 18008G13KT 32/08 A2981 RMK A01 T03200084  RH  024%=      5-min Rain = 0
KLBW 272010Z 19011G17KT 32/08 A298 RMK A01 T03210075  RH  022%=      5-min Rain = 0
KLBW 272015Z 18012G18KT 32/06 A298 RMK A01 T03180062  RH  021%=      5-min Rain = 0
KLBW 272020Z 20013G19KT 32/07 A298 RMK A01 T03170065  RH  021%=      5-min Rain = 0
KLBW 272025Z 20012G18KT 32/07 A2979 RMK A01 T03180065  RH  021%=      5-min Rain = 0
KLBW 272030Z 19013G19KT 32/07 A2979 RMK A01 T03180069  RH  022%=      5-min Rain = 0
KLBW 272035Z 18013G21KT 32/07 A2979 RMK A01 T03200068  RH  021%=      5-min Rain = 0
KLBW 272040Z 19013G22KT 32/07 A2978 RMK A01 T03200070  RH  022%=      5-min Rain = 0
KLBW 272045Z 21017G22KT 32/07 A2978 RMK A01 T03200070  RH  022%=      5-min Rain = 0
KLBW 272050Z 21013G19KT 32/08 A2978 RMK A01 T03180076  RH  023%=      5-min Rain = 0
KLBW 272055Z 19013G20KT 32/08 A2977 RMK A01 T03220083  RH  023%=      5-min Rain = 0
KLBW 272100Z 19015G23KT 32/07 A2977 RMK A01 T03210074  RH  022%=      5-min Rain = 0
KLBW 272105Z 21014G20KT 32/07 A2977 RMK A01 T03200068  RH  021%=      5-min Rain = 0
KLBW 272110Z 19014G20KT 32/07 A2977 RMK A01 T03210070  RH  022%=      5-min Rain = 0
KLBW 272115Z 18015G24KT 32/07 A2976 RMK A01 T03220070  RH  021%=      5-min Rain = 0
KLBW 272120Z 17014G21KT 32/07 A2976 RMK A01 T03210073  RH  022%=      5-min Rain = 0
KLBW 272125Z 20015G25KT 32/07 A2976 RMK A01 T03210071  RH  022%=      5-min Rain = 0
KLBW 272130Z 21017G24KT 32/07 A2975 RMK A01 T03210071  RH  022%=      5-min Rain = 0
KLBW 272135Z 20016G23KT 32/08 A2975 RMK A01 T03200076  RH  023%=      5-min Rain = 0
KLBW 272140Z 18012G17KT 32/09 A2974 RMK A01 T03220086  RH  024%=      5-min Rain = 0
KLBW 272145Z 17014G21KT 32/10 A2974 RMK A01 T03220103  RH  027%=      5-min Rain = 0
KLBW 272150Z 17014G22KT 32/11 A2974 RMK A01 T03200114  RH  029%=      5-min Rain = 0
KLBW 272155Z 16013G19KT 32/12 A2974 RMK A01 T03200120  RH  031%=      5-min Rain = 0
KLBW 272200Z 18015G21KT 32/12 A2974 RMK A01 T03200117  RH  030%=      5-min Rain = 0
KLBW 272205Z 18013G21KT 32/12 A2974 RMK A01 T03180116  RH  030%=      5-min Rain = 0
KLBW 272210Z 17013G20KT 32/12 A2974 RMK A01 T03170122  RH  032%=      5-min Rain = 0
KLBW 272215Z 18014G21KT 32/12 A2973 RMK A01 T03190124  RH  032%=      5-min Rain = 0
KLBW 272220Z 17012G17KT 32/12 A2973 RMK A01 T03170122  RH  032%=      5-min Rain = 0
KLBW 272225Z 19013G21KT 32/12 A2973 RMK A01 T03180120  RH  031%=      5-min Rain = 0
KLBW 272230Z 18013G19KT 32/12 A2973 RMK A01 T03170119  RH  031%=      5-min Rain = 0
KLBW 272235Z 17015G25KT 31/11 A2973 RMK A01 T03140112  RH  030%=      5-min Rain = 0
KLBW 272240Z 18015KT 32/11 A2973 RMK A01 T03170107  RH  028%=      5-min Rain = 0
KLBW 272245Z 17014G20KT 31/11 A2973 RMK A01 T03140109  RH  029%=      5-min Rain = 0
KLBW 272250Z 17014G19KT 32/11 A2972 RMK A01 T03160110  RH  029%=      5-min Rain = 0
KLBW 272255Z 18017G23KT 31/10 A2972 RMK A01 T03140103  RH  028%=      5-min Rain = 0
KLBW 272300Z 17015G23KT 31/11 A2972 RMK A01 T03140105  RH  029%=      5-min Rain = 0
KLBW 272305Z 17017G23KT 31/10 A2972 RMK A01 T03140098  RH  027%=      5-min Rain = 0
KLBW 272310Z 17016G23KT 31/10 A2972 RMK A01 T03130097  RH  027%=      5-min Rain = 0
KLBW 272315Z 17016KT 31/10 A2972 RMK A01 T03140096  RH  027%=      5-min Rain = 0
KLBW 272320Z 17014G21KT 31/10 A2972 RMK A01 T03130097  RH  027%=      5-min Rain = 0
KLBW 272325Z 17016G25KT 31/09 A2972 RMK A01 T03130094  RH  027%=      5-min Rain = 0
KLBW 272330Z 17016G24KT 31/09 A2972 RMK A01 T03120090  RH  026%=      5-min Rain = 0
KLBW 272335Z 18015G21KT 31/09 A2971 RMK A01 T03110087  RH  026%=      5-min Rain = 0
KLBW 272340Z 18015G22KT 31/09 A2971 RMK A01 T03110089  RH  026%=      5-min Rain = 0
KLBW 272345Z 16015G23KT 31/09 A2971 RMK A01 T03110091  RH  026%=      5-min Rain = 0
KLBW 272350Z 17012G18KT 31/10 A2971 RMK A01 T03110097  RH  027%=      5-min Rain = 0
KLBW 272355Z 17013KT 31/09 A2971 RMK A01 T03100094  RH  027%=      5-min Rain = 0
KLBW 280000Z 17015G23KT 31/09 A2971 RMK A01 T03090088  RH  026%=      5-min Rain = 0
KLBW 280005Z 18013G18KT 31/09 A2971 RMK A01 T03090091  RH  027%=      5-min Rain = 0
KLBW 280010Z 18012G18KT 31/09 A2971 RMK A01 T03070092  RH  027%=      5-min Rain = 0
KLBW 280015Z 17013G20KT 31/09 A297 RMK A01 T03070089  RH  027%=      5-min Rain = 0
KLBW 280020Z 18013G18KT 31/09 A297 RMK A01 T03060092  RH  027%=      5-min Rain = 0
KLBW 280025Z 18011G17KT 30/10 A297 RMK A01 T03000095  RH  029%=      5-min Rain = 0
KLBW 280030Z 17012G22KT 30/09 A297 RMK A01 T03010092  RH  028%=      5-min Rain = 0
KLBW 280035Z 17010KT 30/10 A297 RMK A01 T02970095  RH  029%=      5-min Rain = 0
KLBW 280040Z 17010G15KT 30/10 A297 RMK A01 T02950103  RH  031%=      5-min Rain = 0
KLBW 280045Z 16012G19KT 30/09 A297 RMK A01 T03010094  RH  028%=      5-min Rain = 0
KLBW 280050Z 16013G18KT 30/09 A297 RMK A01 T03020094  RH  028%=      5-min Rain = 0
KLBW 280055Z 17012G20KT 30/10 A297 RMK A01 T02990098  RH  030%=      5-min Rain = 0
KLBW 280100Z 17013G20KT 30/10 A297 RMK A01 T03000096  RH  029%=      5-min Rain = 0
KLBW 280105Z 17013KT 30/10 A297 RMK A01 T02990098  RH  030%=      5-min Rain = 0
KLBW 280110Z 17010G17KT 30/10 A297 RMK A01 T02960104  RH  032%=      5-min Rain = 0
KLBW 280115Z 16011G19KT 29/12 A297 RMK A01 T02930115  RH  035%=      5-min Rain = 0
KLBW 280120Z 16011G16KT 29/12 A297 RMK A01 T02910123  RH  037%=      5-min Rain = 0
KLBW 280125Z 16010G17KT 29/13 A297 RMK A01 T02890128  RH  039%=      5-min Rain = 0
KLBW 280130Z 16012G20KT 29/13 A297 RMK A01 T02890129  RH  039%=      5-min Rain = 0
KLBW 280135Z 15012G21KT 29/13 A297 RMK A01 T02870132  RH  040%=      5-min Rain = 0
KLBW 280140Z 15013G21KT 29/14 A297 RMK A01 T02860142  RH  043%=      5-min Rain = 0
KLBW 280145Z 14014G22KT 28/17 A297 RMK A01 T02800166  RH  052%=      5-min Rain = 0
KLBW 280150Z 14015G20KT 28/18 A2971 RMK A01 T02760175  RH  057%=      5-min Rain = 0
KLBW 280155Z 14016G22KT 28/18 A2971 RMK A01 T02750177  RH  058%=      5-min Rain = 0
KLBW 280200Z 14017G22KT 27/18 A2971 RMK A01 T02740178  RH  059%=      5-min Rain = 0
KLBW 280205Z 14013G19KT 27/18 A2971 RMK A01 T02720179  RH  060%=      5-min Rain = 0
KLBW 280210Z 15014G20KT 27/18 A2971 RMK A01 T02700179  RH  060%=      5-min Rain = 0
KLBW 280215Z 15013G19KT 27/18 A2971 RMK A01 T02680178  RH  061%=      5-min Rain = 0
KLBW 280220Z 15013G19KT 27/18 A2971 RMK A01 T02690176  RH  060%=      5-min Rain = 0
KLBW 280225Z 15014G20KT 27/18 A2971 RMK A01 T02680175  RH  060%=      5-min Rain = 0
KLBW 280230Z 15015G27KT 27/17 A2971 RMK A01 T02680172  RH  059%=      5-min Rain = 0
KLBW 280235Z 15015G21KT 27/17 A2971 RMK A01 T02670169  RH  058%=      5-min Rain = 0
KLBW 280240Z 15015G22KT 27/17 A2971 RMK A01 T02660167  RH  057%=      5-min Rain = 0
KLBW 280245Z 14011G19KT 26/17 A2971 RMK A01 T02630169  RH  059%=      5-min Rain = 0
KLBW 280250Z 15014G20KT 26/17 A2971 RMK A01 T02610171  RH  060%=      5-min Rain = 0
KLBW 280255Z 15013G21KT 26/17 A2971 RMK A01 T02600170  RH  061%=      5-min Rain = 0
KLBW 280300Z 15015G23KT 26/17 A2971 RMK A01 T02590169  RH  060%=      5-min Rain = 0
KLBW 280305Z 15015G22KT 26/17 A2971 RMK A01 T02600168  RH  060%=      5-min Rain = 0
KLBW 280310Z 15016G23KT 26/17 A2971 RMK A01 T02600168  RH  060%=      5-min Rain = 0
KLBW 280315Z 15013G19KT 26/17 A2971 RMK A01 T02580168  RH  060%=      5-min Rain = 0
KLBW 280320Z 16015G26KT 26/17 A2971 RMK A01 T02570168  RH  061%=      5-min Rain = 0
KLBW 280325Z 16016G25KT 26/17 A2971 RMK A01 T02570168  RH  061%=      5-min Rain = 0
KLBW 280330Z 16015G22KT 26/17 A2971 RMK A01 T02570169  RH  061%=      5-min Rain = 0
KLBW 280335Z 16015G22KT 26/17 A2971 RMK A01 T02550169  RH  062%=      5-min Rain = 0
KLBW 280340Z 15014G20KT 25/17 A2972 RMK A01 T02540169  RH  063%=      5-min Rain = 0
KLBW 280345Z 15014G19KT 25/17 A2972 RMK A01 T02530170  RH  063%=      5-min Rain = 0
KLBW 280350Z 15015G22KT 25/17 A2972 RMK A01 T02530171  RH  064%=      5-min Rain = 0
KLBW 280355Z 15014G19KT 25/17 A2972 RMK A01 T02510171  RH  064%=      5-min Rain = 0
KLBW 280400Z 15015G22KT 25/17 A2972 RMK A01 T02510171  RH  064%=      5-min Rain = 0
KLBW 280405Z 16014G24KT 25/17 A2972 RMK A01 T02510172  RH  065%=      5-min Rain = 0
KLBW 280410Z 16014G20KT 25/17 A2972 RMK A01 T02490172  RH  066%=      5-min Rain = 0
KLBW 280415Z 16016G24KT 25/17 A2972 RMK A01 T02490173  RH  066%=      5-min Rain = 0
KLBW 280420Z 16014G20KT 25/17 A2972 RMK A01 T02480173  RH  066%=      5-min Rain = 0
KLBW 280425Z 16015G20KT 25/17 A2973 RMK A01 T02480173  RH  066%=      5-min Rain = 0
KLBW 280430Z 16016G23KT 25/17 A2973 RMK A01 T02480173  RH  066%=      5-min Rain = 0
KLBW 280435Z 16015G23KT 25/17 A2973 RMK A01 T02470173  RH  067%=      5-min Rain = 0
KLBW 280440Z 16015G25KT 25/17 A2973 RMK A01 T02450174  RH  068%=      5-min Rain = 0
KLBW 280445Z 16014G22KT 25/17 A2973 RMK A01 T02460174  RH  067%=      5-min Rain = 0
KLBW 280450Z 16015G23KT 25/18 A2973 RMK A01 T02450175  RH  069%=      5-min Rain = 0
KLBW 280455Z 16015G23KT 25/18 A2973 RMK A01 T02450176  RH  069%=      5-min Rain = 0

Page generated in 0.0175 seconds.